sensor_id;sensor_type;location;lat;lon;timestamp;temperature;humidity
45785;DHT22;31489;51.404;5.474;2022-12-07T00:01:09;9.00;72.10
45785;DHT22;31489;51.404;5.474;2022-12-07T00:03:37;9.00;72.30
45785;DHT22;31489;51.404;5.474;2022-12-07T00:06:03;9.00;72.30
45785;DHT22;31489;51.404;5.474;2022-12-07T00:08:30;9.00;72.30
45785;DHT22;31489;51.404;5.474;2022-12-07T00:13:29;9.00;72.20
45785;DHT22;31489;51.404;5.474;2022-12-07T00:15:55;9.00;72.00
45785;DHT22;31489;51.404;5.474;2022-12-07T00:18:20;9.00;72.00
45785;DHT22;31489;51.404;5.474;2022-12-07T00:20:46;9.00;71.90
45785;DHT22;31489;51.404;5.474;2022-12-07T00:23:12;9.00;71.80
45785;DHT22;31489;51.404;5.474;2022-12-07T00:25:37;9.00;71.80
45785;DHT22;31489;51.404;5.474;2022-12-07T00:28:03;8.90;71.70
45785;DHT22;31489;51.404;5.474;2022-12-07T00:30:29;8.90;71.70
45785;DHT22;31489;51.404;5.474;2022-12-07T00:32:55;8.80;71.80
45785;DHT22;31489;51.404;5.474;2022-12-07T00:35:20;8.80;71.70
45785;DHT22;31489;51.404;5.474;2022-12-07T00:37:46;8.80;71.80
45785;DHT22;31489;51.404;5.474;2022-12-07T00:40:12;8.70;71.50
45785;DHT22;31489;51.404;5.474;2022-12-07T00:42:37;8.70;71.70
45785;DHT22;31489;51.404;5.474;2022-12-07T00:45:03;8.60;71.50
45785;DHT22;31489;51.404;5.474;2022-12-07T00:47:29;8.60;71.60
45785;DHT22;31489;51.404;5.474;2022-12-07T00:49:54;8.60;71.90
45785;DHT22;31489;51.404;5.474;2022-12-07T00:52:20;8.60;71.90
45785;DHT22;31489;51.404;5.474;2022-12-07T00:54:45;8.60;71.70
45785;DHT22;31489;51.404;5.474;2022-12-07T00:57:11;8.60;71.60
45785;DHT22;31489;51.404;5.474;2022-12-07T00:59:37;8.50;71.40
45785;DHT22;31489;51.404;5.474;2022-12-07T01:02:05;8.50;71.30
45785;DHT22;31489;51.404;5.474;2022-12-07T01:04:33;8.50;71.20
45785;DHT22;31489;51.404;5.474;2022-12-07T01:06:59;8.50;71.10
45785;DHT22;31489;51.404;5.474;2022-12-07T01:09:25;8.50;71.00
45785;DHT22;31489;51.404;5.474;2022-12-07T01:11:51;8.40;70.80
45785;DHT22;31489;51.404;5.474;2022-12-07T01:14:18;8.40;70.70
45785;DHT22;31489;51.404;5.474;2022-12-07T01:16:43;8.50;70.80
45785;DHT22;31489;51.404;5.474;2022-12-07T01:19:09;8.40;70.80
45785;DHT22;31489;51.404;5.474;2022-12-07T01:21:35;8.40;70.70
45785;DHT22;31489;51.404;5.474;2022-12-07T01:24:04;8.40;70.80
45785;DHT22;31489;51.404;5.474;2022-12-07T01:26:30;8.40;70.60
45785;DHT22;31489;51.404;5.474;2022-12-07T01:28:56;8.40;70.60
45785;DHT22;31489;51.404;5.474;2022-12-07T01:31:25;8.30;70.60
45785;DHT22;31489;51.404;5.474;2022-12-07T01:33:54;8.30;70.50
45785;DHT22;31489;51.404;5.474;2022-12-07T01:36:22;8.30;70.40
45785;DHT22;31489;51.404;5.474;2022-12-07T01:38:50;8.30;70.30
45785;DHT22;31489;51.404;5.474;2022-12-07T01:41:20;8.30;70.30
45785;DHT22;31489;51.404;5.474;2022-12-07T01:44:26;8.30;70.60
45785;DHT22;31489;51.404;5.474;2022-12-07T01:46:51;8.20;70.60
45785;DHT22;31489;51.404;5.474;2022-12-07T01:49:34;8.20;70.70
45785;DHT22;31489;51.404;5.474;2022-12-07T01:54:58;8.20;71.10
45785;DHT22;31489;51.404;5.474;2022-12-07T01:57:25;8.20;71.20
45785;DHT22;31489;51.404;5.474;2022-12-07T01:59:52;8.20;71.10
45785;DHT22;31489;51.404;5.474;2022-12-07T02:02:24;8.30;71.30
45785;DHT22;31489;51.404;5.474;2022-12-07T02:04:52;8.30;71.40
45785;DHT22;31489;51.404;5.474;2022-12-07T02:07:20;8.30;71.50
45785;DHT22;31489;51.404;5.474;2022-12-07T02:09:46;8.30;71.70
45785;DHT22;31489;51.404;5.474;2022-12-07T02:12:12;8.30;71.80
45785;DHT22;31489;51.404;5.474;2022-12-07T02:14:37;8.40;71.90
45785;DHT22;31489;51.404;5.474;2022-12-07T02:28:29;8.50;72.50
45785;DHT22;31489;51.404;5.474;2022-12-07T02:31:01;8.50;72.40
45785;DHT22;31489;51.404;5.474;2022-12-07T02:33:40;8.50;72.30
45785;DHT22;31489;51.404;5.474;2022-12-07T02:36:25;8.50;72.50
45785;DHT22;31489;51.404;5.474;2022-12-07T02:39:17;8.50;72.80
45785;DHT22;31489;51.404;5.474;2022-12-07T02:41:47;8.60;72.60
45785;DHT22;31489;51.404;5.474;2022-12-07T02:44:19;8.60;72.50
45785;DHT22;31489;51.404;5.474;2022-12-07T02:46:55;8.60;72.40
45785;DHT22;31489;51.404;5.474;2022-12-07T02:49:36;8.60;72.40
45785;DHT22;31489;51.404;5.474;2022-12-07T02:52:03;8.60;72.40
45785;DHT22;31489;51.404;5.474;2022-12-07T02:54:29;8.60;72.00
45785;DHT22;31489;51.404;5.474;2022-12-07T02:57:25;8.60;72.00
45785;DHT22;31489;51.404;5.474;2022-12-07T03:00:09;8.60;72.20
45785;DHT22;31489;51.404;5.474;2022-12-07T03:10:54;8.50;71.50
45785;DHT22;31489;51.404;5.474;2022-12-07T03:13:35;8.40;71.60
45785;DHT22;31489;51.404;5.474;2022-12-07T03:16:21;8.40;71.80
45785;DHT22;31489;51.404;5.474;2022-12-07T03:19:24;8.40;71.90
45785;DHT22;31489;51.404;5.474;2022-12-07T03:21:57;8.40;71.80
45785;DHT22;31489;51.404;5.474;2022-12-07T03:24:28;8.40;71.80
45785;DHT22;31489;51.404;5.474;2022-12-07T03:27:02;8.30;71.80
45785;DHT22;31489;51.404;5.474;2022-12-07T03:29:34;8.40;72.10
45785;DHT22;31489;51.404;5.474;2022-12-07T03:32:31;8.40;72.00
45785;DHT22;31489;51.404;5.474;2022-12-07T03:35:00;8.30;72.00
45785;DHT22;31489;51.404;5.474;2022-12-07T03:37:33;8.30;71.90
45785;DHT22;31489;51.404;5.474;2022-12-07T03:42:51;8.30;72.10
45785;DHT22;31489;51.404;5.474;2022-12-07T03:45:18;8.30;71.90
45785;DHT22;31489;51.404;5.474;2022-12-07T03:48:03;8.30;72.10
45785;DHT22;31489;51.404;5.474;2022-12-07T03:51:40;8.20;72.30
45785;DHT22;31489;51.404;5.474;2022-12-07T03:54:18;8.20;72.60
45785;DHT22;31489;51.404;5.474;2022-12-07T03:56:45;8.20;72.40
45785;DHT22;31489;51.404;5.474;2022-12-07T03:59:13;8.10;72.10
45785;DHT22;31489;51.404;5.474;2022-12-07T04:01:42;8.10;72.20
45785;DHT22;31489;51.404;5.474;2022-12-07T04:04:08;8.10;72.40
45785;DHT22;31489;51.404;5.474;2022-12-07T04:06:34;8.20;72.70
45785;DHT22;31489;51.404;5.474;2022-12-07T04:08:59;8.10;72.80
45785;DHT22;31489;51.404;5.474;2022-12-07T04:11:25;8.20;72.90
45785;DHT22;31489;51.404;5.474;2022-12-07T04:13:51;8.20;72.90
45785;DHT22;31489;51.404;5.474;2022-12-07T04:16:35;8.20;72.90
45785;DHT22;31489;51.404;5.474;2022-12-07T04:19:00;8.30;73.00
45785;DHT22;31489;51.404;5.474;2022-12-07T04:21:26;8.30;73.00
45785;DHT22;31489;51.404;5.474;2022-12-07T04:23:51;8.30;73.00
45785;DHT22;31489;51.404;5.474;2022-12-07T04:26:17;8.30;73.00
45785;DHT22;31489;51.404;5.474;2022-12-07T04:28:42;8.30;72.90
45785;DHT22;31489;51.404;5.474;2022-12-07T04:31:08;8.40;73.00
45785;DHT22;31489;51.404;5.474;2022-12-07T04:33:35;8.40;73.00
45785;DHT22;31489;51.404;5.474;2022-12-07T04:36:00;8.40;73.00
45785;DHT22;31489;51.404;5.474;2022-12-07T04:38:26;8.40;73.10
45785;DHT22;31489;51.404;5.474;2022-12-07T04:40:51;8.40;73.10
45785;DHT22;31489;51.404;5.474;2022-12-07T04:43:17;8.40;73.10
45785;DHT22;31489;51.404;5.474;2022-12-07T04:45:47;8.40;73.10
45785;DHT22;31489;51.404;5.474;2022-12-07T04:48:12;8.40;73.30
45785;DHT22;31489;51.404;5.474;2022-12-07T04:50:38;8.50;73.20
45785;DHT22;31489;51.404;5.474;2022-12-07T04:53:04;8.50;73.20
45785;DHT22;31489;51.404;5.474;2022-12-07T04:55:29;8.40;73.10
45785;DHT22;31489;51.404;5.474;2022-12-07T04:57:55;8.50;73.80
45785;DHT22;31489;51.404;5.474;2022-12-07T05:00:21;8.50;73.30
45785;DHT22;31489;51.404;5.474;2022-12-07T05:02:46;8.50;73.40
45785;DHT22;31489;51.404;5.474;2022-12-07T05:05:12;8.50;73.40
45785;DHT22;31489;51.404;5.474;2022-12-07T05:07:37;8.60;73.40
45785;DHT22;31489;51.404;5.474;2022-12-07T05:10:04;8.60;73.40
45785;DHT22;31489;51.404;5.474;2022-12-07T05:12:29;8.60;73.30
45785;DHT22;31489;51.404;5.474;2022-12-07T05:14:55;8.60;73.20
45785;DHT22;31489;51.404;5.474;2022-12-07T05:17:21;8.60;73.20
45785;DHT22;31489;51.404;5.474;2022-12-07T05:19:46;8.70;73.20
45785;DHT22;31489;51.404;5.474;2022-12-07T05:22:12;8.70;73.10
45785;DHT22;31489;51.404;5.474;2022-12-07T05:24:38;8.70;73.00
45785;DHT22;31489;51.404;5.474;2022-12-07T05:27:04;8.60;73.00
45785;DHT22;31489;51.404;5.474;2022-12-07T05:29:29;8.60;73.00
45785;DHT22;31489;51.404;5.474;2022-12-07T05:31:55;8.60;73.00
45785;DHT22;31489;51.404;5.474;2022-12-07T05:34:21;8.60;73.10
45785;DHT22;31489;51.404;5.474;2022-12-07T05:36:46;8.60;73.20
45785;DHT22;31489;51.404;5.474;2022-12-07T05:39:12;8.60;73.80
45785;DHT22;31489;51.404;5.474;2022-12-07T05:41:37;8.60;73.30
45785;DHT22;31489;51.404;5.474;2022-12-07T05:44:22;8.60;73.30
45785;DHT22;31489;51.404;5.474;2022-12-07T05:46:47;8.60;73.30
45785;DHT22;31489;51.404;5.474;2022-12-07T05:49:13;8.60;73.30
45785;DHT22;31489;51.404;5.474;2022-12-07T05:51:38;8.60;73.20
45785;DHT22;31489;51.404;5.474;2022-12-07T05:54:04;8.60;73.10
45785;DHT22;31489;51.404;5.474;2022-12-07T05:56:30;8.70;72.90
45785;DHT22;31489;51.404;5.474;2022-12-07T05:58:55;8.70;72.80
45785;DHT22;31489;51.404;5.474;2022-12-07T06:01:40;8.60;72.60
45785;DHT22;31489;51.404;5.474;2022-12-07T06:04:05;8.60;72.60
45785;DHT22;31489;51.404;5.474;2022-12-07T06:06:31;8.60;72.50
45785;DHT22;31489;51.404;5.474;2022-12-07T06:08:57;8.60;72.40
45785;DHT22;31489;51.404;5.474;2022-12-07T06:11:22;8.50;72.40
45785;DHT22;31489;51.404;5.474;2022-12-07T06:14:06;8.50;72.30
45785;DHT22;31489;51.404;5.474;2022-12-07T06:16:32;8.50;72.30
45785;DHT22;31489;51.404;5.474;2022-12-07T06:18:57;8.50;72.20
45785;DHT22;31489;51.404;5.474;2022-12-07T06:21:23;8.50;72.10
45785;DHT22;31489;51.404;5.474;2022-12-07T06:23:51;8.50;71.90
45785;DHT22;31489;51.404;5.474;2022-12-07T06:26:16;8.40;72.00
45785;DHT22;31489;51.404;5.474;2022-12-07T06:28:42;8.40;71.90
45785;DHT22;31489;51.404;5.474;2022-12-07T06:31:08;8.40;71.80
45785;DHT22;31489;51.404;5.474;2022-12-07T06:33:33;8.40;71.90
45785;DHT22;31489;51.404;5.474;2022-12-07T06:36:02;8.40;71.70
45785;DHT22;31489;51.404;5.474;2022-12-07T06:38:28;8.40;71.40
45785;DHT22;31489;51.404;5.474;2022-12-07T06:40:54;8.30;71.20
45785;DHT22;31489;51.404;5.474;2022-12-07T06:43:19;8.30;71.30
45785;DHT22;31489;51.404;5.474;2022-12-07T06:45:45;8.30;71.30
45785;DHT22;31489;51.404;5.474;2022-12-07T06:48:11;8.20;71.40
45785;DHT22;31489;51.404;5.474;2022-12-07T06:50:37;8.20;71.50
45785;DHT22;31489;51.404;5.474;2022-12-07T06:53:03;8.20;71.40
45785;DHT22;31489;51.404;5.474;2022-12-07T06:55:29;8.10;71.60
45785;DHT22;31489;51.404;5.474;2022-12-07T06:57:54;8.10;71.80
45785;DHT22;31489;51.404;5.474;2022-12-07T07:00:20;8.10;71.90
45785;DHT22;31489;51.404;5.474;2022-12-07T07:02:46;8.10;71.90
45785;DHT22;31489;51.404;5.474;2022-12-07T07:05:11;8.00;72.00
45785;DHT22;31489;51.404;5.474;2022-12-07T07:07:37;8.10;72.20
45785;DHT22;31489;51.404;5.474;2022-12-07T07:10:03;8.00;72.30
45785;DHT22;31489;51.404;5.474;2022-12-07T07:12:29;8.00;72.30
45785;DHT22;31489;51.404;5.474;2022-12-07T07:14:54;8.00;72.40
45785;DHT22;31489;51.404;5.474;2022-12-07T07:17:20;8.00;72.40
45785;DHT22;31489;51.404;5.474;2022-12-07T07:19:45;8.00;72.50
45785;DHT22;31489;51.404;5.474;2022-12-07T07:22:11;8.00;72.70
45785;DHT22;31489;51.404;5.474;2022-12-07T07:24:37;8.00;72.60
45785;DHT22;31489;51.404;5.474;2022-12-07T07:27:02;8.00;72.70
45785;DHT22;31489;51.404;5.474;2022-12-07T07:29:28;8.00;72.70
45785;DHT22;31489;51.404;5.474;2022-12-07T07:31:54;8.00;72.70
45785;DHT22;31489;51.404;5.474;2022-12-07T07:34:20;8.00;72.70
45785;DHT22;31489;51.404;5.474;2022-12-07T07:36:45;8.00;72.70
45785;DHT22;31489;51.404;5.474;2022-12-07T07:39:11;8.00;72.70
45785;DHT22;31489;51.404;5.474;2022-12-07T07:41:39;8.00;72.70
45785;DHT22;31489;51.404;5.474;2022-12-07T07:44:05;7.90;72.70
45785;DHT22;31489;51.404;5.474;2022-12-07T07:46:30;8.00;72.70
45785;DHT22;31489;51.404;5.474;2022-12-07T07:48:58;8.00;72.80
45785;DHT22;31489;51.404;5.474;2022-12-07T07:51:24;8.00;72.60
45785;DHT22;31489;51.404;5.474;2022-12-07T07:53:49;7.90;72.60
45785;DHT22;31489;51.404;5.474;2022-12-07T07:56:15;7.90;72.60
45785;DHT22;31489;51.404;5.474;2022-12-07T07:58:41;8.00;72.80
45785;DHT22;31489;51.404;5.474;2022-12-07T08:01:07;8.00;72.80
45785;DHT22;31489;51.404;5.474;2022-12-07T08:03:33;8.00;72.90
45785;DHT22;31489;51.404;5.474;2022-12-07T08:05:58;8.00;72.90
45785;DHT22;31489;51.404;5.474;2022-12-07T08:08:24;8.00;72.90
45785;DHT22;31489;51.404;5.474;2022-12-07T08:10:50;8.10;72.90
45785;DHT22;31489;51.404;5.474;2022-12-07T08:13:16;8.10;72.90
45785;DHT22;31489;51.404;5.474;2022-12-07T08:15:47;8.10;72.90
45785;DHT22;31489;51.404;5.474;2022-12-07T08:18:13;8.10;72.80
45785;DHT22;31489;51.404;5.474;2022-12-07T08:20:40;8.10;72.80
45785;DHT22;31489;51.404;5.474;2022-12-07T08:23:07;8.20;72.80
45785;DHT22;31489;51.404;5.474;2022-12-07T08:25:33;8.20;72.70
45785;DHT22;31489;51.404;5.474;2022-12-07T08:28:00;8.10;72.60
45785;DHT22;31489;51.404;5.474;2022-12-07T08:30:26;8.20;72.70
45785;DHT22;31489;51.404;5.474;2022-12-07T08:32:52;8.10;72.70
45785;DHT22;31489;51.404;5.474;2022-12-07T08:35:18;8.10;72.60
45785;DHT22;31489;51.404;5.474;2022-12-07T08:37:44;8.10;72.80
45785;DHT22;31489;51.404;5.474;2022-12-07T08:40:11;8.10;72.90
45785;DHT22;31489;51.404;5.474;2022-12-07T08:42:41;8.10;72.90
45785;DHT22;31489;51.404;5.474;2022-12-07T08:45:09;8.20;73.00
45785;DHT22;31489;51.404;5.474;2022-12-07T08:47:38;8.20;73.10
45785;DHT22;31489;51.404;5.474;2022-12-07T08:50:06;8.20;73.00
45785;DHT22;31489;51.404;5.474;2022-12-07T08:52:33;8.30;73.00
45785;DHT22;31489;51.404;5.474;2022-12-07T08:55:00;8.20;73.00
45785;DHT22;31489;51.404;5.474;2022-12-07T08:57:27;8.30;73.10
45785;DHT22;31489;51.404;5.474;2022-12-07T08:59:53;8.30;73.20
45785;DHT22;31489;51.404;5.474;2022-12-07T09:02:19;8.40;73.30
45785;DHT22;31489;51.404;5.474;2022-12-07T09:04:45;8.40;73.30
45785;DHT22;31489;51.404;5.474;2022-12-07T09:07:10;8.40;73.30
45785;DHT22;31489;51.404;5.474;2022-12-07T09:09:39;8.50;73.30
45785;DHT22;31489;51.404;5.474;2022-12-07T09:12:05;8.60;73.20
45785;DHT22;31489;51.404;5.474;2022-12-07T09:14:30;8.60;73.20
45785;DHT22;31489;51.404;5.474;2022-12-07T09:17:08;8.70;73.20
45785;DHT22;31489;51.404;5.474;2022-12-07T09:19:35;8.70;73.20
45785;DHT22;31489;51.404;5.474;2022-12-07T09:22:01;8.70;72.90
45785;DHT22;31489;51.404;5.474;2022-12-07T09:24:26;8.80;72.80
45785;DHT22;31489;51.404;5.474;2022-12-07T09:26:53;8.80;72.80
45785;DHT22;31489;51.404;5.474;2022-12-07T09:29:18;8.80;72.70
45785;DHT22;31489;51.404;5.474;2022-12-07T09:31:44;8.90;72.70
45785;DHT22;31489;51.404;5.474;2022-12-07T09:34:09;8.90;72.70
45785;DHT22;31489;51.404;5.474;2022-12-07T09:36:35;8.90;72.60
45785;DHT22;31489;51.404;5.474;2022-12-07T09:39:01;8.90;72.60
45785;DHT22;31489;51.404;5.474;2022-12-07T09:41:29;8.90;72.50
45785;DHT22;31489;51.404;5.474;2022-12-07T09:44:05;8.90;72.50
45785;DHT22;31489;51.404;5.474;2022-12-07T09:46:35;9.00;72.70
45785;DHT22;31489;51.404;5.474;2022-12-07T09:49:05;9.00;72.70
45785;DHT22;31489;51.404;5.474;2022-12-07T09:51:35;9.00;72.70
45785;DHT22;31489;51.404;5.474;2022-12-07T09:54:01;9.00;72.60
45785;DHT22;31489;51.404;5.474;2022-12-07T09:56:29;9.10;72.40
45785;DHT22;31489;51.404;5.474;2022-12-07T09:59:00;9.20;73.40
45785;DHT22;31489;51.404;5.474;2022-12-07T10:01:32;9.30;74.30
45785;DHT22;31489;51.404;5.474;2022-12-07T10:04:18;9.60;74.10
45785;DHT22;31489;51.404;5.474;2022-12-07T10:06:46;9.90;73.70
45785;DHT22;31489;51.404;5.474;2022-12-07T10:09:15;10.20;74.40
45785;DHT22;31489;51.404;5.474;2022-12-07T10:14:27;10.80;71.70
45785;DHT22;31489;51.404;5.474;2022-12-07T10:16:53;11.00;71.20
45785;DHT22;31489;51.404;5.474;2022-12-07T10:19:33;11.10;70.70
45785;DHT22;31489;51.404;5.474;2022-12-07T10:22:13;11.30;71.00
45785;DHT22;31489;51.404;5.474;2022-12-07T10:24:42;11.60;70.90
45785;DHT22;31489;51.404;5.474;2022-12-07T10:27:20;11.90;71.80
45785;DHT22;31489;51.404;5.474;2022-12-07T10:29:49;12.30;71.10
45785;DHT22;31489;51.404;5.474;2022-12-07T10:34:42;13.20;71.10
45785;DHT22;31489;51.404;5.474;2022-12-07T10:39:52;14.20;68.60
45785;DHT22;31489;51.404;5.474;2022-12-07T10:42:28;14.60;68.50
45785;DHT22;31489;51.404;5.474;2022-12-07T10:45:15;15.10;69.50
45785;DHT22;31489;51.404;5.474;2022-12-07T10:53:28;16.20;62.90
45785;DHT22;31489;51.404;5.474;2022-12-07T11:05:45;15.60;59.50
45785;DHT22;31489;51.404;5.474;2022-12-07T11:14:30;14.60;59.20
45785;DHT22;31489;51.404;5.474;2022-12-07T11:20:12;13.90;59.90
45785;DHT22;31489;51.404;5.474;2022-12-07T11:25:35;13.80;63.10
45785;DHT22;31489;51.404;5.474;2022-12-07T11:31:14;14.30;63.60
45785;DHT22;31489;51.404;5.474;2022-12-07T11:33:47;14.60;62.50
45785;DHT22;31489;51.404;5.474;2022-12-07T11:39:33;14.90;60.60
45785;DHT22;31489;51.404;5.474;2022-12-07T11:42:22;14.80;60.50
45785;DHT22;31489;51.404;5.474;2022-12-07T11:44:55;14.80;60.10
45785;DHT22;31489;51.404;5.474;2022-12-07T11:47:48;14.60;60.00
45785;DHT22;31489;51.404;5.474;2022-12-07T11:53:09;14.20;59.50
45785;DHT22;31489;51.404;5.474;2022-12-07T11:55:57;13.90;59.40
45785;DHT22;31489;51.404;5.474;2022-12-07T12:03:47;13.20;60.80
45785;DHT22;31489;51.404;5.474;2022-12-07T12:06:14;13.00;60.90
45785;DHT22;31489;51.404;5.474;2022-12-07T12:09:09;12.80;60.90
45785;DHT22;31489;51.404;5.474;2022-12-07T12:14:42;12.50;61.70
45785;DHT22;31489;51.404;5.474;2022-12-07T12:20:26;12.10;62.70
45785;DHT22;31489;51.404;5.474;2022-12-07T12:23:20;11.90;63.10
45785;DHT22;31489;51.404;5.474;2022-12-07T12:25:54;11.70;63.30
45785;DHT22;31489;51.404;5.474;2022-12-07T12:31:11;11.60;63.80
45785;DHT22;31489;51.404;5.474;2022-12-07T12:33:43;11.50;63.90
45785;DHT22;31489;51.404;5.474;2022-12-07T12:47:03;11.30;65.00
45785;DHT22;31489;51.404;5.474;2022-12-07T12:49:41;11.40;65.80
45785;DHT22;31489;51.404;5.474;2022-12-07T12:55:02;11.90;66.70
45785;DHT22;31489;51.404;5.474;2022-12-07T12:57:37;12.30;66.30
45785;DHT22;31489;51.404;5.474;2022-12-07T13:00:23;12.60;66.60
45785;DHT22;31489;51.404;5.474;2022-12-07T13:02:58;13.10;65.60
45785;DHT22;31489;51.404;5.474;2022-12-07T13:05:29;13.50;65.40
45785;DHT22;31489;51.404;5.474;2022-12-07T13:08:00;13.90;64.20
45785;DHT22;31489;51.404;5.474;2022-12-07T13:31:36;13.20;60.90
45785;DHT22;31489;51.404;5.474;2022-12-07T13:34:04;13.00;61.10
45785;DHT22;31489;51.404;5.474;2022-12-07T13:36:33;12.90;61.10
45785;DHT22;31489;51.404;5.474;2022-12-07T13:39:22;12.70;61.20
45785;DHT22;31489;51.404;5.474;2022-12-07T13:41:53;12.60;61.30
45785;DHT22;31489;51.404;5.474;2022-12-07T13:44:21;12.40;61.60
45785;DHT22;31489;51.404;5.474;2022-12-07T13:46:59;12.30;62.00
45785;DHT22;31489;51.404;5.474;2022-12-07T13:49:29;12.10;61.90
45785;DHT22;31489;51.404;5.474;2022-12-07T13:52:17;12.00;62.20
45785;DHT22;31489;51.404;5.474;2022-12-07T13:54:48;11.80;62.60
45785;DHT22;31489;51.404;5.474;2022-12-07T13:57:16;11.70;62.80
45785;DHT22;31489;51.404;5.474;2022-12-07T13:59:42;11.60;62.90
45785;DHT22;31489;51.404;5.474;2022-12-07T14:02:26;11.50;63.20
45785;DHT22;31489;51.404;5.474;2022-12-07T14:05:05;11.40;63.50
45785;DHT22;31489;51.404;5.474;2022-12-07T14:07:33;11.30;63.80
45785;DHT22;31489;51.404;5.474;2022-12-07T14:10:27;11.30;64.20
45785;DHT22;31489;51.404;5.474;2022-12-07T14:12:53;11.30;64.70
45785;DHT22;31489;51.404;5.474;2022-12-07T14:15:26;11.30;64.70
45785;DHT22;31489;51.404;5.474;2022-12-07T14:17:54;11.20;64.60
45785;DHT22;31489;51.404;5.474;2022-12-07T14:20:39;11.30;64.80
45785;DHT22;31489;51.404;5.474;2022-12-07T14:23:24;11.20;64.80
45785;DHT22;31489;51.404;5.474;2022-12-07T14:25:52;11.20;64.80
45785;DHT22;31489;51.404;5.474;2022-12-07T14:28:27;11.20;64.80
45785;DHT22;31489;51.404;5.474;2022-12-07T14:30:53;11.20;64.80
45785;DHT22;31489;51.404;5.474;2022-12-07T14:33:19;11.10;65.00
45785;DHT22;31489;51.404;5.474;2022-12-07T14:35:45;11.10;65.10
45785;DHT22;31489;51.404;5.474;2022-12-07T14:38:11;11.10;65.20
45785;DHT22;31489;51.404;5.474;2022-12-07T14:40:38;11.00;65.20
45785;DHT22;31489;51.404;5.474;2022-12-07T14:43:15;11.00;65.30
45785;DHT22;31489;51.404;5.474;2022-12-07T14:45:41;11.00;65.50
45785;DHT22;31489;51.404;5.474;2022-12-07T14:48:11;11.00;65.40
45785;DHT22;31489;51.404;5.474;2022-12-07T14:50:40;11.00;65.60
45785;DHT22;31489;51.404;5.474;2022-12-07T14:53:15;10.90;65.70
45785;DHT22;31489;51.404;5.474;2022-12-07T14:55:41;10.90;66.00
45785;DHT22;31489;51.404;5.474;2022-12-07T14:58:15;10.80;65.90
45785;DHT22;31489;51.404;5.474;2022-12-07T15:00:42;10.80;66.00
45785;DHT22;31489;51.404;5.474;2022-12-07T15:03:07;10.80;65.80
45785;DHT22;31489;51.404;5.474;2022-12-07T15:05:34;10.80;65.90
45785;DHT22;31489;51.404;5.474;2022-12-07T15:08:00;10.70;66.00
45785;DHT22;31489;51.404;5.474;2022-12-07T15:10:28;10.70;66.60
45785;DHT22;31489;51.404;5.474;2022-12-07T15:13:02;10.70;66.30
45785;DHT22;31489;51.404;5.474;2022-12-07T15:15:50;10.60;66.30
45785;DHT22;31489;51.404;5.474;2022-12-07T15:18:17;10.60;66.40
45785;DHT22;31489;51.404;5.474;2022-12-07T15:20:45;10.60;66.20
45785;DHT22;31489;51.404;5.474;2022-12-07T15:23:11;10.50;66.20
45785;DHT22;31489;51.404;5.474;2022-12-07T15:25:41;10.50;66.30
45785;DHT22;31489;51.404;5.474;2022-12-07T15:28:06;10.40;66.10
45785;DHT22;31489;51.404;5.474;2022-12-07T15:30:32;10.40;66.10
45785;DHT22;31489;51.404;5.474;2022-12-07T15:32:58;10.40;65.90
45785;DHT22;31489;51.404;5.474;2022-12-07T15:35:23;10.40;66.00
45785;DHT22;31489;51.404;5.474;2022-12-07T15:37:49;10.30;65.80
45785;DHT22;31489;51.404;5.474;2022-12-07T15:40:15;10.30;65.70
45785;DHT22;31489;51.404;5.474;2022-12-07T15:42:40;10.20;65.70
45785;DHT22;31489;51.404;5.474;2022-12-07T15:45:07;10.20;65.90
45785;DHT22;31489;51.404;5.474;2022-12-07T15:47:37;10.20;66.00
45785;DHT22;31489;51.404;5.474;2022-12-07T15:50:04;10.10;66.00
45785;DHT22;31489;51.404;5.474;2022-12-07T15:52:30;10.00;66.10
45785;DHT22;31489;51.404;5.474;2022-12-07T15:54:56;10.00;66.30
45785;DHT22;31489;51.404;5.474;2022-12-07T15:57:22;10.00;66.40
45785;DHT22;31489;51.404;5.474;2022-12-07T15:59:48;9.90;66.60
45785;DHT22;31489;51.404;5.474;2022-12-07T16:02:13;9.90;66.80
45785;DHT22;31489;51.404;5.474;2022-12-07T16:04:39;9.90;67.60
45785;DHT22;31489;51.404;5.474;2022-12-07T16:07:05;9.90;67.20
45785;DHT22;31489;51.404;5.474;2022-12-07T16:09:31;9.90;67.30
45785;DHT22;31489;51.404;5.474;2022-12-07T16:11:57;9.90;67.30
45785;DHT22;31489;51.404;5.474;2022-12-07T16:14:22;9.90;67.40
45785;DHT22;31489;51.404;5.474;2022-12-07T16:16:48;9.90;67.50
45785;DHT22;31489;51.404;5.474;2022-12-07T16:19:14;9.90;67.50
45785;DHT22;31489;51.404;5.474;2022-12-07T16:21:40;9.90;67.60
45785;DHT22;31489;51.404;5.474;2022-12-07T16:24:06;9.90;67.50
45785;DHT22;31489;51.404;5.474;2022-12-07T16:26:32;9.90;67.70
45785;DHT22;31489;51.404;5.474;2022-12-07T16:29:02;9.90;67.70
45785;DHT22;31489;51.404;5.474;2022-12-07T16:31:28;9.90;67.70
45785;DHT22;31489;51.404;5.474;2022-12-07T16:33:55;9.90;67.60
45785;DHT22;31489;51.404;5.474;2022-12-07T16:36:23;9.90;67.50
45785;DHT22;31489;51.404;5.474;2022-12-07T16:38:54;9.90;67.60
45785;DHT22;31489;51.404;5.474;2022-12-07T16:41:20;9.90;67.70
45785;DHT22;31489;51.404;5.474;2022-12-07T16:43:46;9.90;67.60
45785;DHT22;31489;51.404;5.474;2022-12-07T16:46:12;9.90;67.50
45785;DHT22;31489;51.404;5.474;2022-12-07T16:48:39;9.90;67.60
45785;DHT22;31489;51.404;5.474;2022-12-07T16:51:06;9.90;67.60
45785;DHT22;31489;51.404;5.474;2022-12-07T16:53:34;9.80;67.50
45785;DHT22;31489;51.404;5.474;2022-12-07T16:56:01;9.80;67.50
45785;DHT22;31489;51.404;5.474;2022-12-07T16:58:27;9.80;67.60
45785;DHT22;31489;51.404;5.474;2022-12-07T17:00:53;9.80;67.50
45785;DHT22;31489;51.404;5.474;2022-12-07T17:03:19;9.80;67.40
45785;DHT22;31489;51.404;5.474;2022-12-07T17:05:45;9.80;67.40
45785;DHT22;31489;51.404;5.474;2022-12-07T17:08:13;9.80;67.40
45785;DHT22;31489;51.404;5.474;2022-12-07T17:10:42;9.80;67.40
45785;DHT22;31489;51.404;5.474;2022-12-07T17:13:12;9.70;67.40
45785;DHT22;31489;51.404;5.474;2022-12-07T17:16:13;9.70;67.40
45785;DHT22;31489;51.404;5.474;2022-12-07T17:18:39;9.70;67.40
45785;DHT22;31489;51.404;5.474;2022-12-07T17:21:06;9.70;67.50
45785;DHT22;31489;51.404;5.474;2022-12-07T17:23:33;9.70;67.60
45785;DHT22;31489;51.404;5.474;2022-12-07T17:26:14;9.70;67.60
45785;DHT22;31489;51.404;5.474;2022-12-07T17:28:43;9.70;67.80
45785;DHT22;31489;51.404;5.474;2022-12-07T17:31:15;9.70;67.70
45785;DHT22;31489;51.404;5.474;2022-12-07T17:33:41;9.70;67.70
45785;DHT22;31489;51.404;5.474;2022-12-07T17:38:36;9.70;68.00
45785;DHT22;31489;51.404;5.474;2022-12-07T17:41:10;9.60;68.00
45785;DHT22;31489;51.404;5.474;2022-12-07T17:43:39;9.70;68.20
45785;DHT22;31489;51.404;5.474;2022-12-07T17:46:09;9.60;68.10
45785;DHT22;31489;51.404;5.474;2022-12-07T17:48:35;9.70;68.10
45785;DHT22;31489;51.404;5.474;2022-12-07T17:51:01;9.60;68.00
45785;DHT22;31489;51.404;5.474;2022-12-07T17:53:49;9.60;68.10
45785;DHT22;31489;51.404;5.474;2022-12-07T17:56:15;9.60;68.20
45785;DHT22;31489;51.404;5.474;2022-12-07T17:58:40;9.60;68.20
45785;DHT22;31489;51.404;5.474;2022-12-07T18:01:09;9.50;68.20